Time;durP1;ratioP1;P1;durP2;ratioP2;P2;SDS_P1;SDS_P2;PMS_P1;PMS_P2;Temp;Humidity;BMP_temperature;BMP_pressure;BME280_temperature;BME280_humidity;BME280_pressure;Samples;Min_cycle;Max_cycle;Signal;HPM_P1;HPM_P2
2024/02/01 00:00:58;;;;;;;60.33;34.83;;;3.90;99.40;;;;;;6245206;23;20031;-68
2024/02/01 00:03:23;;;;;;;60.97;36.47;;;3.90;99.40;;;;;;6244690;23;20093;-68
2024/02/01 00:05:49;;;;;;;64.70;35.53;;;3.90;99.40;;;;;;6244896;23;20004;-68
2024/02/01 00:08:15;;;;;;;60.17;35.63;;;3.90;99.40;;;;;;6245389;23;20011;-68
2024/02/01 00:10:40;;;;;;;54.80;34.33;;;3.90;99.30;;;;;;6245154;23;20008;-68
2024/02/01 00:13:06;;;;;;;59.23;34.00;;;3.90;99.30;;;;;;6243302;23;20058;-67
2024/02/01 00:15:32;;;;;;;58.73;34.17;;;3.90;99.10;;;;;;6245190;23;20004;-68
2024/02/01 00:17:58;;;;;;;56.97;33.20;;;3.90;99.20;;;;;;6244857;23;20419;-68
2024/02/01 00:20:24;;;;;;;60.57;33.90;;;3.90;99.10;;;;;;6244866;23;20000;-68
2024/02/01 00:22:49;;;;;;;61.97;35.20;;;3.80;99.00;;;;;;6244975;23;20023;-68
2024/02/01 00:25:15;;;;;;;57.03;33.93;;;3.80;99.00;;;;;;6244766;23;20015;-68
2024/02/01 00:27:41;;;;;;;64.53;35.63;;;3.80;99.10;;;;;;6244921;23;20502;-68
2024/02/01 00:30:07;;;;;;;61.63;36.73;;;3.80;99.00;;;;;;6244705;23;20075;-67
2024/02/01 00:32:33;;;;;;;62.67;34.93;;;3.80;99.00;;;;;;6244317;23;19996;-67
2024/02/01 00:34:59;;;;;;;56.97;33.43;;;3.70;98.80;;;;;;6218032;23;20017;-68
2024/02/01 00:37:25;;;;;;;68.63;34.63;;;3.70;98.90;;;;;;6244863;23;20073;-68
2024/02/01 00:39:51;;;;;;;58.53;33.50;;;3.70;99.00;;;;;;6244768;23;20000;-68
2024/02/01 00:42:16;;;;;;;54.57;32.73;;;3.60;99.10;;;;;;6245078;23;20011;-68
2024/02/01 00:44:42;;;;;;;51.37;31.10;;;3.60;99.10;;;;;;6244742;23;20459;-68
2024/02/01 00:47:08;;;;;;;52.67;31.40;;;3.50;99.30;;;;;;6245000;23;19997;-68
2024/02/01 00:49:34;;;;;;;49.83;30.67;;;3.50;99.60;;;;;;6244821;23;20058;-68
2024/02/01 00:52:00;;;;;;;51.27;31.67;;;3.50;99.90;;;;;;6244902;23;20365;-68
2024/02/01 00:54:26;;;;;;;54.93;29.07;;;3.50;99.90;;;;;;6244644;23;20075;-68
2024/02/01 00:56:52;;;;;;;58.87;31.50;;;3.50;99.90;;;;;;6244527;23;20019;-68
2024/02/01 00:59:17;;;;;;;51.67;30.90;;;3.50;99.90;;;;;;6244516;23;20000;-68
2024/02/01 01:01:43;;;;;;;52.53;31.63;;;3.50;99.90;;;;;;6244930;23;20005;-68
2024/02/01 01:04:09;;;;;;;53.17;30.93;;;3.50;99.90;;;;;;6244949;23;20020;-68
2024/02/01 01:06:35;;;;;;;55.23;31.40;;;3.50;99.90;;;;;;6245319;23;20071;-68
2024/02/01 01:09:00;;;;;;;50.17;30.77;;;3.50;99.90;;;;;;6245420;23;20004;-68
2024/02/01 01:11:26;;;;;;;50.43;30.80;;;3.50;99.90;;;;;;6245335;23;20055;-67
2024/02/01 01:13:53;;;;;;;47.43;30.47;;;3.50;99.90;;;;;;6218218;23;20322;-68
2024/02/01 01:16:19;;;;;;;46.37;29.03;;;3.50;99.90;;;;;;6247080;23;20004;-69
2024/02/01 01:18:45;;;;;;;45.53;27.90;;;3.50;99.90;;;;;;6220244;23;20032;-69
2024/02/01 01:21:12;;;;;;;47.80;28.60;;;3.50;99.90;;;;;;6247182;23;20004;-68
2024/02/01 01:23:38;;;;;;;47.50;28.10;;;3.50;99.90;;;;;;6247154;23;20496;-68
2024/02/01 01:26:03;;;;;;;47.13;28.17;;;3.50;99.90;;;;;;6247032;23;20008;-68
2024/02/01 01:28:29;;;;;;;42.80;26.63;;;3.40;99.90;;;;;;6247123;23;20036;-68
2024/02/01 01:30:55;;;;;;;50.57;27.40;;;3.40;99.90;;;;;;6247165;23;20000;-68
2024/02/01 01:33:21;;;;;;;54.73;28.73;;;3.40;99.90;;;;;;6247189;23;20004;-68
2024/02/01 01:35:46;;;;;;;51.83;30.73;;;3.40;99.90;;;;;;6247040;23;20026;-67
2024/02/01 01:38:12;;;;;;;50.77;31.17;;;3.40;99.90;;;;;;6247250;23;19996;-68
2024/02/01 01:40:38;;;;;;;57.50;30.57;;;3.40;99.90;;;;;;6247048;23;20004;-67
2024/02/01 01:43:04;;;;;;;53.23;30.03;;;3.30;99.90;;;;;;6247072;23;20022;-68
2024/02/01 01:45:30;;;;;;;47.83;28.73;;;3.30;99.90;;;;;;6246484;23;20047;-68
2024/02/01 01:47:56;;;;;;;46.23;28.77;;;3.30;99.60;;;;;;6246861;23;20415;-68
2024/02/01 01:50:22;;;;;;;49.73;30.00;;;3.30;99.60;;;;;;6246409;23;20004;-68
2024/02/01 01:52:49;;;;;;;52.73;31.07;;;3.30;99.40;;;;;;6246891;23;20007;-68
2024/02/01 01:55:16;;;;;;;51.17;31.17;;;3.30;99.20;;;;;;6246706;23;20468;-68
2024/02/01 01:57:42;;;;;;;47.90;28.67;;;3.30;99.10;;;;;;6218976;23;20061;-68
2024/02/01 02:00:09;;;;;;;45.20;28.57;;;3.20;99.40;;;;;;6243644;23;20000;-68
2024/02/01 02:02:36;;;;;;;53.90;29.77;;;3.10;99.40;;;;;;6243357;23;20011;-68
2024/02/01 02:05:02;;;;;;;45.97;28.53;;;3.10;99.50;;;;;;6244983;23;20015;-67
2024/02/01 02:07:28;;;;;;;51.30;28.77;;;3.10;99.50;;;;;;6246348;23;20005;-68
2024/02/01 02:10:00;;;;;;;45.17;27.70;;;3.00;99.50;;;;;;6246897;23;20000;-68
2024/02/01 02:12:26;;;;;;;47.97;28.27;;;3.00;99.60;;;;;;6246881;23;20308;-68
2024/02/01 02:15:00;;;;;;;47.60;27.80;;;3.00;99.50;;;;;;6246261;23;20521;-68
2024/02/01 02:17:26;;;;;;;50.80;27.83;;;2.90;99.60;;;;;;6246370;23;20004;-67
2024/02/01 02:19:53;;;;;;;44.80;27.43;;;2.90;99.60;;;;;;6220154;23;20031;-68
2024/02/01 02:22:20;;;;;;;45.10;26.07;;;2.80;99.70;;;;;;6246312;23;20038;-68
2024/02/01 02:24:46;;;;;;;44.20;26.17;;;2.80;99.90;;;;;;6246113;23;20065;-68
2024/02/01 02:27:11;;;;;;;45.70;27.17;;;2.80;99.90;;;;;;6246238;23;20012;-68
2024/02/01 02:29:37;;;;;;;45.77;26.37;;;2.90;99.90;;;;;;6246061;23;20385;-68
2024/02/01 02:32:03;;;;;;;44.67;26.97;;;2.90;99.60;;;;;;6246340;23;19996;-68
2024/02/01 02:34:29;;;;;;;44.80;27.23;;;2.90;99.50;;;;;;6246087;23;20008;-68
2024/02/01 02:36:55;;;;;;;43.70;26.43;;;2.90;99.60;;;;;;6245923;23;20022;-68
2024/02/01 02:39:20;;;;;;;44.37;25.43;;;2.80;99.70;;;;;;6246479;23;20407;-68
2024/02/01 02:41:46;;;;;;;44.37;26.63;;;2.70;99.90;;;;;;6246966;23;20082;-68
2024/02/01 02:44:13;;;;;;;45.80;24.77;;;2.70;99.90;;;;;;6245869;23;20427;-67
2024/02/01 02:46:39;;;;;;;39.50;24.60;;;2.70;99.90;;;;;;6246413;23;20008;-68
2024/02/01 02:49:08;;;;;;;40.13;23.27;;;2.60;99.90;;;;;;6246718;23;20043;-68
2024/02/01 02:51:34;;;;;;;35.20;23.00;;;2.70;99.90;;;;;;6246591;23;20057;-68
2024/02/01 02:54:00;;;;;;;38.33;23.30;;;2.60;99.90;;;;;;6246580;23;20000;-68
2024/02/01 02:56:26;;;;;;;38.33;23.77;;;2.70;99.90;;;;;;6246299;23;20084;-68
2024/02/01 02:58:51;;;;;;;44.83;25.17;;;2.70;99.90;;;;;;6246307;23;20444;-68
2024/02/01 03:01:17;;;;;;;36.97;22.97;;;2.70;99.90;;;;;;6246155;23;20007;-67
2024/02/01 03:03:43;;;;;;;37.00;22.50;;;2.70;99.90;;;;;;6246001;23;20022;-68
2024/02/01 03:06:09;;;;;;;38.00;23.03;;;2.70;99.90;;;;;;6246311;23;20158;-68
2024/02/01 03:08:39;;;;;;;38.17;22.93;;;2.70;99.90;;;;;;6246416;23;20326;-68
2024/02/01 03:11:10;;;;;;;40.37;22.87;;;2.70;99.90;;;;;;6246553;23;20449;-68
2024/02/01 03:13:39;;;;;;;42.27;22.60;;;2.70;99.90;;;;;;6246442;23;20058;-68
2024/02/01 03:16:25;;;;;;;37.70;23.60;;;2.60;99.90;;;;;;6246050;23;20426;-68
2024/02/01 03:18:51;;;;;;;36.60;22.57;;;2.60;99.90;;;;;;6246189;23;20066;-68
2024/02/01 03:21:18;;;;;;;47.67;24.83;;;2.70;99.90;;;;;;6246385;23;20004;-67
2024/02/01 03:23:46;;;;;;;40.07;23.97;;;2.70;99.90;;;;;;6246143;23;20004;-68
2024/02/01 03:26:13;;;;;;;44.07;24.27;;;2.60;99.90;;;;;;6245955;23;20427;-68
2024/02/01 03:28:44;;;;;;;45.53;25.13;;;2.70;99.90;;;;;;6246057;23;19992;-68
2024/02/01 03:31:11;;;;;;;38.60;23.07;;;2.70;99.70;;;;;;6246114;23;20004;-68
2024/02/01 03:33:44;;;;;;;40.23;23.70;;;2.60;99.80;;;;;;6246213;23;20000;-68
2024/02/01 03:36:10;;;;;;;37.72;23.95;;;2.60;99.70;;;;;;6245920;23;20008;-68
2024/02/01 03:38:37;;;;;;;43.10;24.33;;;2.60;99.60;;;;;;6245488;23;20050;-68
2024/02/01 03:41:04;;;;;;;41.33;23.30;;;2.60;99.30;;;;;;6245735;23;20000;-68
2024/02/01 03:43:30;;;;;;;42.23;24.30;;;2.50;99.30;;;;;;6245772;23;20335;-68
2024/02/01 03:45:57;;;;;;;44.43;23.50;;;2.40;99.50;;;;;;6245822;23;20001;-68
2024/02/01 03:48:23;;;;;;;44.47;23.57;;;2.40;99.60;;;;;;6246282;23;20023;-68
2024/02/01 03:50:51;;;;;;;38.77;21.93;;;2.30;99.90;;;;;;6245998;23;20411;-68
2024/02/01 03:53:18;;;;;;;39.57;23.53;;;2.30;99.90;;;;;;6245888;23;20323;-67
2024/02/01 03:55:48;;;;;;;40.00;23.70;;;2.30;99.90;;;;;;6246445;23;20070;-68
2024/02/01 03:58:16;;;;;;;41.20;23.10;;;2.30;99.90;;;;;;6246135;23;20004;-68
2024/02/01 04:00:42;;;;;;;44.97;24.70;;;2.30;99.90;;;;;;6245563;23;20003;-67
2024/02/01 04:03:14;;;;;;;39.07;22.73;;;2.30;99.90;;;;;;6245525;23;20000;-68
2024/02/01 04:05:40;;;;;;;41.35;23.42;;;2.30;99.80;;;;;;6245767;23;20449;-67
2024/02/01 04:08:09;;;;;;;41.30;23.93;;;2.40;99.50;;;;;;6245760;23;20007;-68
2024/02/01 04:10:36;;;;;;;52.30;23.77;;;2.30;99.40;;;;;;6245683;23;20050;-67
2024/02/01 04:13:05;;;;;;;59.07;22.23;;;2.30;99.30;;;;;;6245994;23;19996;-68
2024/02/01 04:15:31;;;;;;;46.53;22.33;;;2.30;99.30;;;;;;6245538;23;20000;-68
2024/02/01 04:17:57;;;;;;;43.47;22.87;;;2.30;99.10;;;;;;6245532;23;20000;-68
2024/02/01 04:20:23;;;;;;;41.37;21.70;;;2.20;99.00;;;;;;6245483;23;20063;-68
2024/02/01 04:22:53;;;;;;;42.07;23.17;;;2.20;99.20;;;;;;6245362;23;20016;-67
2024/02/01 04:25:23;;;;;;;36.87;22.03;;;2.10;99.30;;;;;;6245535;23;20051;-68
2024/02/01 04:27:52;;;;;;;44.70;22.83;;;2.10;99.40;;;;;;6245688;23;20012;-68
2024/02/01 04:30:19;;;;;;;36.47;22.50;;;2.00;99.70;;;;;;6245575;23;20004;-68
2024/02/01 04:32:45;;;;;;;41.40;23.53;;;2.00;99.90;;;;;;6244991;23;20024;-68
2024/02/01 04:35:15;;;;;;;44.23;23.93;;;2.00;99.90;;;;;;6245871;23;20011;-68
2024/02/01 04:37:41;;;;;;;42.63;23.23;;;2.00;99.90;;;;;;6245520;23;19996;-68
2024/02/01 04:40:08;;;;;;;41.80;23.07;;;2.00;99.90;;;;;;6245716;23;20327;-68
2024/02/01 04:42:35;;;;;;;43.40;23.37;;;2.00;99.90;;;;;;6244799;23;20000;-68
2024/02/01 04:45:04;;;;;;;43.97;24.67;;;2.00;99.90;;;;;;6245496;23;20019;-68
2024/02/01 04:47:36;;;;;;;37.77;21.30;;;2.10;99.90;;;;;;6245008;23;20061;-67
2024/02/01 04:50:03;;;;;;;43.38;23.52;;;2.00;99.90;;;;;;6245367;22;20011;-68
2024/02/01 04:52:30;;;;;;;40.27;23.03;;;2.00;99.90;;;;;;6246029;23;20012;-68
2024/02/01 04:54:58;;;;;;;42.67;21.53;;;2.00;99.90;;;;;;6245317;23;20491;-68
2024/02/01 04:57:24;;;;;;;38.67;22.67;;;2.00;99.90;;;;;;6245443;23;20061;-68
2024/02/01 04:59:50;;;;;;;42.47;22.63;;;2.00;99.90;;;;;;6245569;23;20008;-67
2024/02/01 05:02:16;;;;;;;41.67;21.90;;;2.00;99.90;;;;;;6245423;23;20075;-68
2024/02/01 05:04:43;;;;;;;34.50;20.90;;;1.90;99.90;;;;;;6245303;23;20401;-66
2024/02/01 05:07:09;;;;;;;42.67;22.63;;;1.90;99.90;;;;;;6245003;23;20024;-67
2024/02/01 05:09:37;;;;;;;40.57;23.13;;;1.90;99.90;;;;;;6245517;23;20362;-68
2024/02/01 05:12:04;;;;;;;48.80;22.27;;;1.90;99.90;;;;;;6245520;23;20003;-68
2024/02/01 05:14:30;;;;;;;30.67;19.23;;;1.90;99.90;;;;;;6245481;23;20008;-68
2024/02/01 05:16:56;;;;;;;31.20;19.67;;;1.90;99.90;;;;;;6245345;23;20304;-67
2024/02/01 05:19:22;;;;;;;36.43;19.67;;;1.90;99.90;;;;;;6245458;23;20027;-68
2024/02/01 05:21:48;;;;;;;32.33;18.27;;;2.00;99.90;;;;;;6245680;23;20004;-67
2024/02/01 05:24:14;;;;;;;33.23;19.80;;;2.00;99.90;;;;;;6245331;23;20008;-68
2024/02/01 05:26:46;;;;;;;33.57;19.07;;;2.10;99.90;;;;;;6245094;23;20020;-68
2024/02/01 05:29:15;;;;;;;28.77;16.15;;;2.10;99.90;;;;;;6245124;23;20004;-68
2024/02/01 05:31:47;;;;;;;34.27;18.20;;;2.10;99.90;;;;;;6245102;23;20012;-68
2024/02/01 05:34:14;;;;;;;27.10;17.07;;;2.10;99.90;;;;;;6245243;23;20434;-67
2024/02/01 05:36:40;;;;;;;29.53;17.67;;;2.10;99.90;;;;;;6245444;23;20319;-67
2024/02/01 05:39:06;;;;;;;33.23;18.37;;;2.10;99.90;;;;;;6245091;23;20000;-68
2024/02/01 05:41:32;;;;;;;38.67;19.60;;;2.10;99.90;;;;;;6244688;23;20011;-67
2024/02/01 05:43:57;;;;;;;35.63;20.63;;;2.20;99.90;;;;;;6245253;23;20069;-68
2024/02/01 05:46:23;;;;;;;36.30;19.07;;;2.20;99.90;;;;;;6245211;23;20018;-67
2024/02/01 05:48:49;;;;;;;30.77;19.07;;;2.10;99.90;;;;;;6245246;23;20031;-67
2024/02/01 05:51:15;;;;;;;37.17;19.13;;;2.10;99.90;;;;;;6245130;23;20026;-67
2024/02/01 05:53:40;;;;;;;32.17;18.87;;;2.00;99.90;;;;;;6244880;23;20000;-67
2024/02/01 05:56:06;;;;;;;34.13;18.30;;;1.90;99.90;;;;;;6244817;23;20023;-67
2024/02/01 05:58:32;;;;;;;33.17;18.03;;;1.80;99.90;;;;;;6217720;23;20099;-67
2024/02/01 06:00:59;;;;;;;34.37;19.40;;;1.80;99.90;;;;;;6244917;23;20050;-67
2024/02/01 06:03:25;;;;;;;40.20;19.50;;;1.70;99.90;;;;;;6246460;23;20000;-67
2024/02/01 06:05:51;;;;;;;30.50;18.07;;;1.70;99.90;;;;;;6247000;23;19996;-67
2024/02/01 06:08:16;;;;;;;32.40;18.50;;;1.70;99.90;;;;;;6246878;23;20004;-67
2024/02/01 06:10:44;;;;;;;30.83;19.10;;;1.60;99.90;;;;;;6246781;23;20011;-67
2024/02/01 06:13:11;;;;;;;33.03;18.13;;;1.60;99.90;;;;;;6246874;23;20006;-67
2024/02/01 06:15:37;;;;;;;32.60;18.43;;;1.60;99.90;;;;;;6246967;23;20004;-67
2024/02/01 06:18:04;;;;;;;34.40;20.50;;;1.60;99.90;;;;;;6247106;23;20387;-67
2024/02/01 06:20:30;;;;;;;29.30;18.53;;;1.60;99.90;;;;;;6246683;23;20000;-67
2024/02/01 06:22:57;;;;;;;34.27;18.20;;;1.60;99.90;;;;;;6246423;23;20000;-67
2024/02/01 06:25:23;;;;;;;32.47;18.97;;;1.60;99.90;;;;;;6246420;23;20015;-67
2024/02/01 06:27:49;;;;;;;32.97;18.67;;;1.60;99.90;;;;;;6246528;23;20362;-67
2024/02/01 06:30:15;;;;;;;31.47;18.90;;;1.70;99.90;;;;;;6246634;23;20000;-67
2024/02/01 06:32:41;;;;;;;36.47;20.63;;;1.70;99.90;;;;;;6246482;23;20422;-67
2024/02/01 06:35:16;;;;;;;30.80;18.53;;;1.70;99.90;;;;;;6246703;23;20007;-68
2024/02/01 06:37:42;;;;;;;33.03;18.50;;;1.70;99.90;;;;;;6246328;23;20015;-67
2024/02/01 06:43:09;;;;;;;38.73;20.07;;;1.70;99.90;;;;;;6246542;23;20015;-67
2024/02/01 06:45:47;;;;;;;37.08;18.52;;;1.70;99.90;;;;;;6246544;23;20577;-68
2024/02/01 06:48:13;;;;;;;49.07;19.53;;;1.70;99.90;;;;;;6246609;23;20363;-67
2024/02/01 06:50:54;;;;;;;51.77;19.87;;;1.70;99.90;;;;;;6246156;23;20011;-67
2024/02/01 06:53:33;;;;;;;45.97;19.17;;;1.90;99.90;;;;;;6245942;23;20058;-68
2024/02/01 06:56:06;;;;;;;36.73;18.07;;;1.90;99.90;;;;;;6246445;23;20012;-67
2024/02/01 06:58:39;;;;;;;37.37;19.37;;;1.90;99.90;;;;;;6246416;23;20058;-67
2024/02/01 07:01:33;;;;;;;30.90;18.15;;;1.90;99.90;;;;;;6246539;23;20008;-67
2024/02/01 07:04:15;;;;;;;36.13;18.57;;;1.90;99.90;;;;;;6245907;23;20016;-67
2024/02/01 07:07:04;;;;;;;33.30;17.98;;;1.90;99.90;;;;;;6246373;23;20327;-67
2024/02/01 07:09:28;;;;;;;40.00;18.17;;;1.80;99.90;;;;;;6246234;23;20012;-67
2024/02/01 07:12:13;;;;;;;35.63;17.73;;;1.90;99.90;;;;;;6246130;23;20008;-67
2024/02/01 07:14:41;;;;;;;34.80;18.97;;;1.80;99.90;;;;;;6246339;23;20004;-67
2024/02/01 07:17:27;;;;;;;49.57;20.13;;;1.90;99.90;;;;;;6246478;23;20030;-68
2024/02/01 07:19:56;;;;;;;41.70;19.77;;;1.80;99.90;;;;;;6246173;23;20004;-68
2024/02/01 07:23:00;;;;;;;43.47;18.60;;;1.90;99.90;;;;;;6246071;23;20052;-67
2024/02/01 07:25:48;;;;;;;45.60;19.30;;;1.90;99.90;;;;;;6246333;23;20012;-67
2024/02/01 07:58:23;;;;;;;44.67;21.10;;;2.70;99.90;;;;;;6242480;23;20091;-68
2024/02/01 08:00:56;;;;;;;57.27;21.93;;;2.80;99.90;;;;;;6244969;23;20091;-68
2024/02/01 08:08:37;;;;;;;38.30;19.40;;;2.90;99.90;;;;;;6245597;23;20100;-71
2024/02/01 08:11:04;;;;;;;32.00;17.20;;;2.90;99.90;;;;;;6245438;23;19996;-68
2024/02/01 08:13:30;;;;;;;26.27;14.97;;;3.00;99.90;;;;;;6245556;23;20300;-68
2024/02/01 08:15:57;;;;;;;33.63;14.50;;;3.10;99.90;;;;;;6245000;23;19996;-68
2024/02/01 08:18:25;;;;;;;25.37;13.73;;;3.20;99.90;;;;;;6245873;23;20000;-68
2024/02/01 08:20:52;;;;;;;21.77;12.10;;;3.30;99.90;;;;;;6245485;23;20036;-68
2024/02/01 08:23:23;;;;;;;22.53;12.63;;;3.40;99.90;;;;;;6235018;23;20498;-68
2024/02/01 08:25:51;;;;;;;18.07;11.73;;;3.50;99.90;;;;;;6215090;23;20076;-68
2024/02/01 08:28:18;;;;;;;26.00;12.03;;;3.70;99.90;;;;;;6212857;23;20005;-68
2024/02/01 08:30:45;;;;;;;17.03;11.07;;;3.80;99.90;;;;;;6215197;23;20377;-68
2024/02/01 08:33:19;;;;;;;21.77;11.10;;;3.90;99.90;;;;;;6213532;23;20028;-68
2024/02/01 08:35:48;;;;;;;24.53;11.20;;;4.00;99.90;;;;;;6187690;23;20069;-68
2024/02/01 08:38:15;;;;;;;33.37;13.93;;;4.10;99.90;;;;;;6214106;23;20310;-68
2024/02/01 08:40:41;;;;;;;34.37;15.43;;;4.20;99.90;;;;;;6214984;23;20008;-68
2024/02/01 08:43:12;;;;;;;36.23;17.77;;;4.30;99.90;;;;;;6214841;23;20112;-68
2024/02/01 08:45:39;;;;;;;33.70;18.23;;;4.30;99.90;;;;;;6214439;23;20351;-68
2024/02/01 08:48:08;;;;;;;34.93;17.37;;;4.40;99.90;;;;;;6214405;23;20526;-68
2024/02/01 08:50:42;;;;;;;31.13;17.27;;;4.40;99.90;;;;;;6214848;23;20004;-68
2024/02/01 08:53:15;;;;;;;36.47;17.63;;;4.40;99.90;;;;;;6212581;23;20005;-68
2024/02/01 08:55:41;;;;;;;30.73;16.15;;;4.50;99.90;;;;;;6210232;23;20017;-68
2024/02/01 08:58:08;;;;;;;24.17;15.20;;;4.50;99.90;;;;;;6213908;23;20027;-68
2024/02/01 09:00:38;;;;;;;27.63;15.27;;;4.50;99.90;;;;;;6215173;23;20008;-68
2024/02/01 09:03:05;;;;;;;28.20;16.03;;;4.50;99.90;;;;;;6214632;23;20063;-68
2024/02/01 09:05:34;;;;;;;38.73;16.00;;;4.50;99.90;;;;;;6214966;23;20020;-68
2024/02/01 09:08:02;;;;;;;33.77;16.73;;;4.50;99.90;;;;;;6214754;23;20051;-68
2024/02/01 09:10:28;;;;;;;36.67;16.27;;;4.50;99.90;;;;;;6214754;23;20001;-68
2024/02/01 09:12:54;;;;;;;45.20;17.83;;;4.50;99.90;;;;;;6214679;23;20031;-68
2024/02/01 09:15:19;;;;;;;47.37;17.47;;;4.50;99.90;;;;;;6215118;23;20032;-68
2024/02/01 09:17:46;;;;;;;58.40;19.33;;;4.50;99.90;;;;;;6215230;23;20001;-68
2024/02/01 09:20:21;;;;;;;49.60;18.40;;;4.50;99.90;;;;;;6215094;23;20032;-68
2024/02/01 09:22:51;;;;;;;43.90;16.87;;;4.60;99.90;;;;;;6215031;23;20047;-68
2024/02/01 09:25:22;;;;;;;47.50;14.90;;;4.60;99.90;;;;;;6214861;23;20016;-68
2024/02/01 09:27:50;;;;;;;27.57;13.33;;;4.70;99.90;;;;;;6215306;23;20001;-68
2024/02/01 09:30:20;;;;;;;22.93;12.40;;;4.80;99.90;;;;;;6215454;23;20079;-68
2024/02/01 09:32:51;;;;;;;19.03;11.60;;;4.80;99.90;;;;;;6214760;23;20000;-68
2024/02/01 09:35:17;;;;;;;27.20;11.30;;;4.90;99.90;;;;;;6216946;23;20009;-70
2024/02/01 09:37:44;;;;;;;18.43;11.23;;;5.00;99.90;;;;;;6218252;23;20485;-68
2024/02/01 09:40:10;;;;;;;17.10;10.43;;;5.10;99.90;;;;;;6217718;23;20008;-68
2024/02/01 09:42:38;;;;;;;19.30;10.50;;;5.10;99.90;;;;;;6216953;23;19997;-68
2024/02/01 09:45:06;;;;;;;24.50;10.67;;;5.20;99.80;;;;;;6216409;23;20013;-68
2024/02/01 09:47:43;;;;;;;26.00;12.70;;;5.20;99.60;;;;;;6190216;23;20008;-68
2024/02/01 09:50:15;;;;;;;31.47;15.77;;;5.30;99.80;;;;;;6216730;23;20075;-68
2024/02/01 09:52:44;;;;;;;31.88;19.05;;;5.30;99.90;;;;;;6216684;23;20020;-68
2024/02/01 09:55:17;;;;;;;27.87;17.77;;;5.40;99.90;;;;;;6216665;23;20051;-67
2024/02/01 09:57:46;;;;;;;;;;;5.40;99.90;;;;;;6217279;23;20481;-67
2024/02/01 10:00:14;;;;;;;29.13;16.50;;;5.40;99.90;;;;;;6216742;23;19971;-67
2024/02/01 10:02:45;;;;;;;27.33;16.80;;;5.40;99.90;;;;;;6216662;23;20351;-67
2024/02/01 10:05:12;;;;;;;27.73;15.03;;;5.50;99.90;;;;;;6216684;23;20008;-67
2024/02/01 10:07:38;;;;;;;26.90;15.33;;;5.50;99.90;;;;;;6189355;23;20051;-68
2024/02/01 10:10:05;;;;;;;25.77;15.73;;;5.50;99.90;;;;;;6216681;23;20434;-67
2024/02/01 10:12:35;;;;;;;29.13;17.43;;;5.50;99.90;;;;;;6216666;23;20001;-67
2024/02/01 10:15:08;;;;;;;35.20;21.97;;;5.50;99.90;;;;;;6216769;23;20000;-67
2024/02/01 10:17:45;;;;;;;84.10;46.17;;;5.50;99.90;;;;;;6216902;23;20008;-67
2024/02/01 10:20:37;;;;;;;72.47;40.10;;;5.50;99.90;;;;;;6216538;23;20079;-68
2024/02/01 10:23:13;;;;;;;57.70;34.70;;;5.60;99.90;;;;;;6216600;23;19997;-67
2024/02/01 10:25:50;;;;;;;48.23;27.47;;;5.60;99.90;;;;;;6216575;23;20096;-67
2024/02/01 10:28:23;;;;;;;39.80;22.77;;;5.80;99.90;;;;;;6216515;23;20072;-67
2024/02/01 10:30:50;;;;;;;39.33;19.07;;;5.80;99.90;;;;;;6216058;23;20013;-68
2024/02/01 10:33:18;;;;;;;29.17;16.33;;;6.00;99.90;;;;;;6216679;23;20005;-67
2024/02/01 10:35:48;;;;;;;24.73;14.63;;;5.90;98.10;;;;;;6216452;23;20009;-67
2024/02/01 10:38:21;;;;;;;24.60;14.30;;;6.00;97.60;;;;;;6216189;23;20465;-67
2024/02/01 10:41:31;;;;;;;29.02;14.15;;;6.10;97.40;;;;;;6216526;23;20028;-68
2024/02/01 10:43:58;;;;;;;32.60;16.27;;;6.20;97.30;;;;;;6095085;23;20437;-67
2024/02/01 10:46:41;;;;;;;24.10;13.87;;;6.20;96.90;;;;;;6200250;23;20005;-68
2024/02/01 10:49:10;;;;;;;31.52;14.60;;;6.30;96.70;;;;;;6216340;23;19996;-67
2024/02/01 10:51:45;;;;;;;31.63;14.93;;;6.40;96.50;;;;;;6216111;23;20007;-67
2024/02/01 10:54:12;;;;;;;26.30;12.33;;;6.40;96.40;;;;;;6216068;23;20001;-67
2024/02/01 10:56:38;;;;;;;29.47;12.83;;;6.50;96.10;;;;;;6216246;23;20008;-67
2024/02/01 10:59:08;;;;;;;23.13;12.03;;;6.50;95.50;;;;;;6216330;23;20000;-67
2024/02/01 11:01:36;;;;;;;25.73;13.47;;;6.50;95.30;;;;;;6189219;23;20071;-67
2024/02/01 11:04:05;;;;;;;25.77;12.60;;;6.60;95.10;;;;;;6216128;23;20084;-67
2024/02/01 11:06:36;;;;;;;23.03;12.00;;;6.60;94.70;;;;;;6215464;23;20001;-67
2024/02/01 11:09:18;;;;;;;23.47;10.27;;;6.70;94.20;;;;;;6215714;23;20017;-67
2024/02/01 11:11:50;;;;;;;24.58;11.15;;;6.80;93.90;;;;;;6216288;23;20005;-67
2024/02/01 11:14:20;;;;;;;19.55;9.75;;;6.90;93.00;;;;;;6216026;23;20012;-67
2024/02/01 11:16:52;;;;;;;26.50;10.57;;;7.00;92.70;;;;;;6215927;23;20028;-67
2024/02/01 11:19:29;;;;;;;24.83;11.00;;;7.00;93.10;;;;;;6215582;23;20011;-67
2024/02/01 11:21:57;;;;;;;21.33;9.90;;;7.10;92.70;;;;;;6215848;23;20062;-66
2024/02/01 11:24:28;;;;;;;20.27;10.53;;;7.10;91.20;;;;;;6215233;23;20450;-67
2024/02/01 11:26:55;;;;;;;23.03;11.03;;;7.20;91.00;;;;;;6215711;23;20004;-67
2024/02/01 11:29:24;;;;;;;20.50;11.33;;;7.20;91.10;;;;;;6215416;23;20007;-67
2024/02/01 11:32:03;;;;;;;21.00;9.53;;;7.20;91.50;;;;;;6215410;23;20011;-66
2024/02/01 11:34:30;;;;;;;26.23;10.80;;;7.30;91.60;;;;;;6188456;23;20000;-67
2024/02/01 11:36:56;;;;;;;15.33;7.63;;;7.40;89.60;;;;;;6216048;23;20011;-67
2024/02/01 11:39:22;;;;;;;15.73;7.33;;;7.50;86.80;;;;;;6215776;23;20076;-67
2024/02/01 11:41:49;;;;;;;12.87;7.27;;;7.50;85.40;;;;;;6215608;23;20009;-67
2024/02/01 11:44:21;;;;;;;16.57;7.30;;;7.60;86.40;;;;;;6215562;23;20342;-66
2024/02/01 11:46:48;;;;;;;16.00;7.03;;;7.60;87.20;;;;;;6215642;23;20004;-67
2024/02/01 11:49:36;;;;;;;10.53;5.83;;;7.70;86.70;;;;;;6215638;23;20031;-67
2024/02/01 11:52:13;;;;;;;11.57;5.67;;;7.70;84.30;;;;;;6215580;23;20419;-67
2024/02/01 11:54:46;;;;;;;14.83;6.80;;;7.70;83.70;;;;;;6214932;23;20005;-67
2024/02/01 11:57:17;;;;;;;11.75;6.97;;;7.70;83.30;;;;;;6214835;23;20008;-67
2024/02/01 11:59:44;;;;;;;13.07;7.70;;;7.70;84.70;;;;;;6187915;23;20009;-67
2024/02/01 12:02:10;;;;;;;14.33;7.33;;;7.70;84.00;;;;;;6214908;23;19997;-67
2024/02/01 12:04:41;;;;;;;13.13;7.93;;;7.70;84.40;;;;;;6214929;23;20015;-67
2024/02/01 12:07:09;;;;;;;13.97;7.80;;;7.70;83.80;;;;;;6214276;23;20023;-67
2024/02/01 12:09:36;;;;;;;13.53;6.77;;;7.70;81.90;;;;;;6215736;23;20019;-67
2024/02/01 12:12:03;;;;;;;15.80;7.60;;;7.70;80.90;;;;;;6215579;23;20000;-67
2024/02/01 12:14:29;;;;;;;12.67;7.50;;;7.70;80.90;;;;;;6215350;23;20059;-67
2024/02/01 12:16:55;;;;;;;13.17;7.33;;;7.70;81.10;;;;;;6215309;23;20009;-67
2024/02/01 12:19:23;;;;;;;12.60;7.23;;;7.70;81.20;;;;;;6215065;23;20366;-67
2024/02/01 12:21:54;;;;;;;14.60;7.07;;;7.70;80.80;;;;;;6215501;23;20001;-67
2024/02/01 12:24:32;;;;;;;15.57;7.30;;;7.70;80.00;;;;;;6214955;23;20024;-67
2024/02/01 12:26:58;;;;;;;16.03;7.27;;;7.70;81.00;;;;;;6215459;23;19997;-67
2024/02/01 12:29:26;;;;;;;11.20;6.90;;;7.70;80.90;;;;;;6215063;23;20015;-67
2024/02/01 12:31:52;;;;;;;13.63;7.90;;;7.70;80.60;;;;;;6215073;23;20497;-67
2024/02/01 12:34:19;;;;;;;12.50;7.50;;;7.80;81.20;;;;;;6215186;23;20000;-67
2024/02/01 12:36:45;;;;;;;22.73;8.53;;;7.80;81.80;;;;;;6188348;23;20308;-67
2024/02/01 12:39:13;;;;;;;14.67;9.90;;;7.80;81.90;;;;;;6215059;23;20001;-67
2024/02/01 12:41:39;;;;;;;16.83;10.00;;;7.80;82.40;;;;;;6190832;23;20472;-66
2024/02/01 12:44:07;;;;;;;15.77;10.60;;;7.80;84.20;;;;;;6214896;23;20013;-67
2024/02/01 12:46:33;;;;;;;18.60;11.60;;;7.80;85.00;;;;;;6215477;23;20058;-67
2024/02/01 12:48:59;;;;;;;36.47;21.17;;;7.90;85.70;;;;;;6215130;23;20005;-67
2024/02/01 12:51:27;;;;;;;32.53;19.63;;;7.90;86.50;;;;;;6215140;23;20367;-67
2024/02/01 12:53:57;;;;;;;24.67;15.53;;;7.90;86.30;;;;;;6215175;23;20083;-67
2024/02/01 12:56:24;;;;;;;36.10;21.50;;;7.80;86.70;;;;;;6215079;23;20404;-67
2024/02/01 12:58:54;;;;;;;29.77;18.37;;;7.90;86.90;;;;;;6214552;23;19997;-67
2024/02/01 13:01:22;;;;;;;26.30;17.33;;;7.80;87.70;;;;;;6215104;23;20011;-67
2024/02/01 13:03:49;;;;;;;32.20;19.63;;;7.80;89.70;;;;;;6188422;23;20015;-66
2024/02/01 13:06:18;;;;;;;31.30;17.87;;;7.80;90.10;;;;;;6215255;23;20024;-66
2024/02/01 13:08:44;;;;;;;25.00;15.30;;;7.80;90.80;;;;;;6215346;23;20419;-66
2024/02/01 13:11:11;;;;;;;22.27;14.77;;;7.80;90.40;;;;;;6189950;23;20387;-67
2024/02/01 13:13:37;;;;;;;29.87;15.43;;;7.80;90.50;;;;;;6216860;23;20054;-67
2024/02/01 13:16:04;;;;;;;24.77;14.70;;;7.80;90.30;;;;;;6217017;23;20035;-67
2024/02/01 13:18:30;;;;;;;27.10;15.87;;;7.80;90.30;;;;;;6217285;23;20023;-66
2024/02/01 13:20:56;;;;;;;23.13;13.60;;;7.70;90.20;;;;;;6216694;23;20329;-66
2024/02/01 13:23:23;;;;;;;24.50;14.90;;;7.70;90.30;;;;;;6216725;23;20036;-66